Terminal Aerodrome Forecast
Issued by NWS Shreveport, LA

Home | Current Version | Previous Version | Text Only | Print | Product List | Glossary On
Versions: 1 2 3 4 5 6 7 8 9 10 11 12 13 14 15 16 17 18 19
000
FTUS44 KSHV 260500 RRA
TAFTXK
TAF
KTXK 260541Z 2606/2706 15009KT P6SM SKC
     FM260800 18009KT P6SM BKN250
     FM261200 15006KT P6SM OVC050
     FM261500 15007KT P6SM OVC015
     FM270000 14007KT 5SM BR OVC007
     FM270300 16009KT 5SM BR OVC004=

USA.gov is the U.S. government's official web portal to all federal, state and local government web resources and services.